sensor_id;sensor_type;location;lat;lon;timestamp;temperature;humidity
18894;DHT22;9579;49.488;8.226;2023-04-30T04:33:03;13.50;99.90
18894;DHT22;9579;49.488;8.226;2023-04-30T04:35:51;13.40;99.90
18894;DHT22;9579;49.488;8.226;2023-04-30T04:38:41;13.50;99.90
18894;DHT22;9579;49.488;8.226;2023-04-30T04:41:29;13.50;99.90
18894;DHT22;9579;49.488;8.226;2023-04-30T04:44:19;13.40;99.90
18894;DHT22;9579;49.488;8.226;2023-04-30T04:47:09;13.70;99.90
18894;DHT22;9579;49.488;8.226;2023-04-30T06:05:13;14.70;99.90
18894;DHT22;9579;49.488;8.226;2023-04-30T06:08:17;14.60;99.90
18894;DHT22;9579;49.488;8.226;2023-04-30T06:13:48;14.60;99.90
18894;DHT22;9579;49.488;8.226;2023-04-30T06:24:08;14.90;99.90
18894;DHT22;9579;49.488;8.226;2023-04-30T06:27:56;15.00;99.90
18894;DHT22;9579;49.488;8.226;2023-04-30T06:31:29;14.90;99.90
18894;DHT22;9579;49.488;8.226;2023-04-30T06:35:16;15.20;99.90
18894;DHT22;9579;49.488;8.226;2023-04-30T06:50:24;15.30;99.90
18894;DHT22;9579;49.488;8.226;2023-04-30T06:58:07;15.60;99.90
18894;DHT22;9579;49.488;8.226;2023-04-30T07:04:26;15.70;99.90
18894;DHT22;9579;49.488;8.226;2023-04-30T07:07:36;15.70;99.90
18894;DHT22;9579;49.488;8.226;2023-04-30T07:10:23;16.00;99.90
18894;DHT22;9579;49.488;8.226;2023-04-30T07:13:10;16.10;99.90
18894;DHT22;9579;49.488;8.226;2023-04-30T07:15:57;16.30;99.90
18894;DHT22;9579;49.488;8.226;2023-04-30T07:18:45;16.40;99.90
18894;DHT22;9579;49.488;8.226;2023-04-30T07:21:33;16.50;99.90
18894;DHT22;9579;49.488;8.226;2023-04-30T07:24:21;16.60;99.90
18894;DHT22;9579;49.488;8.226;2023-04-30T07:27:08;16.60;99.90
18894;DHT22;9579;49.488;8.226;2023-04-30T07:29:55;16.50;99.90
18894;DHT22;9579;49.488;8.226;2023-04-30T07:32:42;16.80;99.90
18894;DHT22;9579;49.488;8.226;2023-04-30T07:35:29;16.80;99.90
18894;DHT22;9579;49.488;8.226;2023-04-30T07:38:16;16.90;99.90
18894;DHT22;9579;49.488;8.226;2023-04-30T07:41:05;16.90;99.90
18894;DHT22;9579;49.488;8.226;2023-04-30T07:43:52;17.00;99.90
18894;DHT22;9579;49.488;8.226;2023-04-30T07:46:39;17.10;99.90
18894;DHT22;9579;49.488;8.226;2023-04-30T07:49:27;17.20;99.90
18894;DHT22;9579;49.488;8.226;2023-04-30T07:52:14;17.40;99.90
18894;DHT22;9579;49.488;8.226;2023-04-30T07:55:01;17.60;99.90
18894;DHT22;9579;49.488;8.226;2023-04-30T07:57:50;17.80;99.90
18894;DHT22;9579;49.488;8.226;2023-04-30T08:00:37;17.90;99.90
18894;DHT22;9579;49.488;8.226;2023-04-30T08:03:24;18.10;99.50
18894;DHT22;9579;49.488;8.226;2023-04-30T08:06:11;18.30;99.00
18894;DHT22;9579;49.488;8.226;2023-04-30T08:08:58;18.60;98.90
18894;DHT22;9579;49.488;8.226;2023-04-30T08:11:45;19.20;98.50
18894;DHT22;9579;49.488;8.226;2023-04-30T08:14:33;19.40;97.90
18894;DHT22;9579;49.488;8.226;2023-04-30T08:17:20;19.80;97.40
18894;DHT22;9579;49.488;8.226;2023-04-30T08:20:08;20.10;96.10
18894;DHT22;9579;49.488;8.226;2023-04-30T08:22:55;20.30;95.60
18894;DHT22;9579;49.488;8.226;2023-04-30T08:25:42;20.40;94.70
18894;DHT22;9579;49.488;8.226;2023-04-30T08:28:29;20.40;94.80
18894;DHT22;9579;49.488;8.226;2023-04-30T08:31:17;20.60;94.80
18894;DHT22;9579;49.488;8.226;2023-04-30T08:34:04;20.80;95.10
18894;DHT22;9579;49.488;8.226;2023-04-30T08:36:51;21.00;94.10
18894;DHT22;9579;49.488;8.226;2023-04-30T08:39:38;21.00;94.70
18894;DHT22;9579;49.488;8.226;2023-04-30T08:42:29;21.10;94.40
18894;DHT22;9579;49.488;8.226;2023-04-30T08:45:17;21.40;93.30
18894;DHT22;9579;49.488;8.226;2023-04-30T08:48:09;21.60;92.50
18894;DHT22;9579;49.488;8.226;2023-04-30T08:50:58;21.50;92.90
18894;DHT22;9579;49.488;8.226;2023-04-30T08:53:46;21.30;93.40
18894;DHT22;9579;49.488;8.226;2023-04-30T08:56:35;21.60;93.40
18894;DHT22;9579;49.488;8.226;2023-04-30T08:59:22;22.10;91.60
18894;DHT22;9579;49.488;8.226;2023-04-30T09:02:09;22.50;91.00
18894;DHT22;9579;49.488;8.226;2023-04-30T09:04:58;22.50;87.20
18894;DHT22;9579;49.488;8.226;2023-04-30T09:07:45;22.60;86.60
18894;DHT22;9579;49.488;8.226;2023-04-30T09:10:32;22.30;85.10
18894;DHT22;9579;49.488;8.226;2023-04-30T09:13:19;21.80;81.80
18894;DHT22;9579;49.488;8.226;2023-04-30T09:16:06;21.30;80.60
18894;DHT22;9579;49.488;8.226;2023-04-30T09:18:53;20.80;83.50
18894;DHT22;9579;49.488;8.226;2023-04-30T09:21:42;20.50;85.00
18894;DHT22;9579;49.488;8.226;2023-04-30T09:24:44;20.40;87.90
18894;DHT22;9579;49.488;8.226;2023-04-30T09:27:32;20.30;88.50
18894;DHT22;9579;49.488;8.226;2023-04-30T09:30:29;20.00;84.90
18894;DHT22;9579;49.488;8.226;2023-04-30T09:33:17;19.70;87.30
18894;DHT22;9579;49.488;8.226;2023-04-30T09:36:08;19.50;86.80
18894;DHT22;9579;49.488;8.226;2023-04-30T09:39:05;19.30;87.70
18894;DHT22;9579;49.488;8.226;2023-04-30T09:42:05;19.40;90.50
18894;DHT22;9579;49.488;8.226;2023-04-30T09:44:52;19.50;91.10
18894;DHT22;9579;49.488;8.226;2023-04-30T09:47:39;19.80;91.10
18894;DHT22;9579;49.488;8.226;2023-04-30T09:50:26;19.70;90.20
18894;DHT22;9579;49.488;8.226;2023-04-30T09:53:14;19.60;90.10
18894;DHT22;9579;49.488;8.226;2023-04-30T09:56:06;19.50;90.80
18894;DHT22;9579;49.488;8.226;2023-04-30T09:58:54;19.40;89.80
18894;DHT22;9579;49.488;8.226;2023-04-30T10:01:43;19.30;90.60
18894;DHT22;9579;49.488;8.226;2023-04-30T10:04:33;19.50;90.80
18894;DHT22;9579;49.488;8.226;2023-04-30T10:07:21;19.80;89.80
18894;DHT22;9579;49.488;8.226;2023-04-30T10:10:11;20.10;89.90
18894;DHT22;9579;49.488;8.226;2023-04-30T10:13:03;20.20;90.10
18894;DHT22;9579;49.488;8.226;2023-04-30T10:15:58;20.20;88.50
18894;DHT22;9579;49.488;8.226;2023-04-30T10:18:45;20.10;88.70
18894;DHT22;9579;49.488;8.226;2023-04-30T10:21:40;19.90;88.60
18894;DHT22;9579;49.488;8.226;2023-04-30T10:24:28;19.90;90.10
18894;DHT22;9579;49.488;8.226;2023-04-30T10:27:16;19.90;88.00
18894;DHT22;9579;49.488;8.226;2023-04-30T10:30:06;19.80;88.30
18894;DHT22;9579;49.488;8.226;2023-04-30T10:33:00;19.80;87.20
18894;DHT22;9579;49.488;8.226;2023-04-30T10:35:56;19.70;87.90
18894;DHT22;9579;49.488;8.226;2023-04-30T10:38:44;19.70;88.00
18894;DHT22;9579;49.488;8.226;2023-04-30T10:41:32;19.40;86.40
18894;DHT22;9579;49.488;8.226;2023-04-30T10:44:21;19.40;87.00
18894;DHT22;9579;49.488;8.226;2023-04-30T10:47:10;19.50;87.60
18894;DHT22;9579;49.488;8.226;2023-04-30T10:50:01;19.70;88.10
18894;DHT22;9579;49.488;8.226;2023-04-30T10:53:00;19.90;87.30
18894;DHT22;9579;49.488;8.226;2023-04-30T10:55:53;20.20;89.30
18894;DHT22;9579;49.488;8.226;2023-04-30T10:58:43;20.30;86.00
18894;DHT22;9579;49.488;8.226;2023-04-30T11:01:30;20.40;87.30
18894;DHT22;9579;49.488;8.226;2023-04-30T11:04:18;20.40;86.90
18894;DHT22;9579;49.488;8.226;2023-04-30T11:07:09;20.10;85.20
18894;DHT22;9579;49.488;8.226;2023-04-30T11:09:56;20.20;87.00
18894;DHT22;9579;49.488;8.226;2023-04-30T11:12:47;20.30;85.90
18894;DHT22;9579;49.488;8.226;2023-04-30T11:15:39;20.70;83.40
18894;DHT22;9579;49.488;8.226;2023-04-30T11:18:26;20.90;81.20
18894;DHT22;9579;49.488;8.226;2023-04-30T11:21:15;20.80;83.30
18894;DHT22;9579;49.488;8.226;2023-04-30T11:24:02;21.00;83.10
18894;DHT22;9579;49.488;8.226;2023-04-30T11:27:02;21.20;83.00
18894;DHT22;9579;49.488;8.226;2023-04-30T11:29:50;21.20;83.40
18894;DHT22;9579;49.488;8.226;2023-04-30T11:32:38;21.30;84.00
18894;DHT22;9579;49.488;8.226;2023-04-30T11:35:27;21.20;81.60
18894;DHT22;9579;49.488;8.226;2023-04-30T11:38:16;21.00;82.50
18894;DHT22;9579;49.488;8.226;2023-04-30T11:41:05;21.20;82.30
18894;DHT22;9579;49.488;8.226;2023-04-30T11:43:52;21.80;82.80
18894;DHT22;9579;49.488;8.226;2023-04-30T11:46:41;21.80;79.70
18894;DHT22;9579;49.488;8.226;2023-04-30T11:49:28;21.50;79.70
18894;DHT22;9579;49.488;8.226;2023-04-30T11:52:20;21.00;81.70
18894;DHT22;9579;49.488;8.226;2023-04-30T11:55:16;21.00;80.80
18894;DHT22;9579;49.488;8.226;2023-04-30T11:58:03;21.00;79.30
18894;DHT22;9579;49.488;8.226;2023-04-30T12:00:50;20.80;81.40
18894;DHT22;9579;49.488;8.226;2023-04-30T12:03:41;20.80;81.70
18894;DHT22;9579;49.488;8.226;2023-04-30T12:06:29;20.70;81.30
18894;DHT22;9579;49.488;8.226;2023-04-30T12:09:16;20.80;81.80
18894;DHT22;9579;49.488;8.226;2023-04-30T12:12:04;21.20;82.50
18894;DHT22;9579;49.488;8.226;2023-04-30T12:14:51;21.70;80.40
18894;DHT22;9579;49.488;8.226;2023-04-30T12:17:38;22.50;80.10
18894;DHT22;9579;49.488;8.226;2023-04-30T12:20:26;22.90;78.50
18894;DHT22;9579;49.488;8.226;2023-04-30T12:23:14;23.40;77.80
18894;DHT22;9579;49.488;8.226;2023-04-30T12:26:01;23.50;76.40
18894;DHT22;9579;49.488;8.226;2023-04-30T12:28:52;23.00;73.40
18894;DHT22;9579;49.488;8.226;2023-04-30T12:31:41;22.70;75.80
18894;DHT22;9579;49.488;8.226;2023-04-30T12:34:29;22.70;74.30
18894;DHT22;9579;49.488;8.226;2023-04-30T12:37:17;22.60;77.30
18894;DHT22;9579;49.488;8.226;2023-04-30T12:40:06;22.30;77.50
18894;DHT22;9579;49.488;8.226;2023-04-30T12:42:59;22.20;76.30
18894;DHT22;9579;49.488;8.226;2023-04-30T12:45:50;22.60;77.80
18894;DHT22;9579;49.488;8.226;2023-04-30T12:48:43;22.70;74.60
18894;DHT22;9579;49.488;8.226;2023-04-30T12:51:33;22.90;76.40
18894;DHT22;9579;49.488;8.226;2023-04-30T12:54:24;23.20;76.00
18894;DHT22;9579;49.488;8.226;2023-04-30T12:57:12;23.20;76.00
18894;DHT22;9579;49.488;8.226;2023-04-30T12:59:59;23.40;75.10
18894;DHT22;9579;49.488;8.226;2023-04-30T13:02:47;23.60;76.20
18894;DHT22;9579;49.488;8.226;2023-04-30T13:05:35;23.50;74.60
18894;DHT22;9579;49.488;8.226;2023-04-30T13:08:22;23.50;73.50
18894;DHT22;9579;49.488;8.226;2023-04-30T13:11:09;23.60;74.40
18894;DHT22;9579;49.488;8.226;2023-04-30T13:13:56;24.10;77.70
18894;DHT22;9579;49.488;8.226;2023-04-30T13:16:43;24.50;72.90
18894;DHT22;9579;49.488;8.226;2023-04-30T13:19:32;24.60;71.50
18894;DHT22;9579;49.488;8.226;2023-04-30T13:22:19;24.20;71.00
18894;DHT22;9579;49.488;8.226;2023-04-30T13:25:07;23.60;73.20
18894;DHT22;9579;49.488;8.226;2023-04-30T13:27:55;23.40;71.30
18894;DHT22;9579;49.488;8.226;2023-04-30T13:30:42;23.20;71.80
18894;DHT22;9579;49.488;8.226;2023-04-30T13:33:29;23.80;74.80
18894;DHT22;9579;49.488;8.226;2023-04-30T13:36:17;24.50;71.60
18894;DHT22;9579;49.488;8.226;2023-04-30T13:39:04;25.00;71.50
18894;DHT22;9579;49.488;8.226;2023-04-30T13:41:52;25.20;68.90
18894;DHT22;9579;49.488;8.226;2023-04-30T13:44:39;24.60;67.40
18894;DHT22;9579;49.488;8.226;2023-04-30T13:47:26;24.00;68.80
18894;DHT22;9579;49.488;8.226;2023-04-30T13:50:13;24.00;69.80
18894;DHT22;9579;49.488;8.226;2023-04-30T13:53:01;24.00;71.50
18894;DHT22;9579;49.488;8.226;2023-04-30T13:55:48;24.30;69.80
18894;DHT22;9579;49.488;8.226;2023-04-30T13:58:35;24.30;69.80
18894;DHT22;9579;49.488;8.226;2023-04-30T14:01:22;24.30;68.90
18894;DHT22;9579;49.488;8.226;2023-04-30T14:04:09;24.30;70.70
18894;DHT22;9579;49.488;8.226;2023-04-30T14:06:56;24.30;70.60
18894;DHT22;9579;49.488;8.226;2023-04-30T14:09:45;24.00;68.60
18894;DHT22;9579;49.488;8.226;2023-04-30T14:12:32;23.90;70.40
18894;DHT22;9579;49.488;8.226;2023-04-30T14:15:19;23.90;69.70
18894;DHT22;9579;49.488;8.226;2023-04-30T14:18:06;23.80;70.50
18894;DHT22;9579;49.488;8.226;2023-04-30T14:20:53;23.70;70.10
18894;DHT22;9579;49.488;8.226;2023-04-30T14:23:40;23.70;71.10
18894;DHT22;9579;49.488;8.226;2023-04-30T14:26:32;24.10;70.10
18894;DHT22;9579;49.488;8.226;2023-04-30T14:29:19;24.50;67.90
18894;DHT22;9579;49.488;8.226;2023-04-30T14:32:06;25.00;67.70
18894;DHT22;9579;49.488;8.226;2023-04-30T14:34:55;25.20;69.30
18894;DHT22;9579;49.488;8.226;2023-04-30T14:37:42;25.40;68.00
18894;DHT22;9579;49.488;8.226;2023-04-30T14:40:29;25.30;68.60
18894;DHT22;9579;49.488;8.226;2023-04-30T14:43:17;25.00;67.90
18894;DHT22;9579;49.488;8.226;2023-04-30T14:46:05;25.40;67.10
18894;DHT22;9579;49.488;8.226;2023-04-30T14:48:52;25.10;66.40
18894;DHT22;9579;49.488;8.226;2023-04-30T14:51:39;24.90;67.50
18894;DHT22;9579;49.488;8.226;2023-04-30T14:54:26;25.20;68.70
18894;DHT22;9579;49.488;8.226;2023-04-30T14:57:13;25.10;67.00
18894;DHT22;9579;49.488;8.226;2023-04-30T15:00:02;25.20;67.80
18894;DHT22;9579;49.488;8.226;2023-04-30T15:02:51;25.40;66.80
18894;DHT22;9579;49.488;8.226;2023-04-30T15:05:39;25.20;66.20
18894;DHT22;9579;49.488;8.226;2023-04-30T15:08:29;24.00;66.90
18894;DHT22;9579;49.488;8.226;2023-04-30T15:11:16;23.50;69.80
18894;DHT22;9579;49.488;8.226;2023-04-30T15:14:03;23.00;71.20
18894;DHT22;9579;49.488;8.226;2023-04-30T15:16:51;22.90;73.60
18894;DHT22;9579;49.488;8.226;2023-04-30T15:19:38;22.80;72.80
18894;DHT22;9579;49.488;8.226;2023-04-30T15:22:25;22.80;73.50
18894;DHT22;9579;49.488;8.226;2023-04-30T15:25:12;22.90;74.60
18894;DHT22;9579;49.488;8.226;2023-04-30T15:27:59;23.10;74.60
18894;DHT22;9579;49.488;8.226;2023-04-30T15:30:47;23.10;71.90
18894;DHT22;9579;49.488;8.226;2023-04-30T15:33:35;23.10;72.40
18894;DHT22;9579;49.488;8.226;2023-04-30T15:36:26;23.30;73.80
18894;DHT22;9579;49.488;8.226;2023-04-30T15:39:13;23.40;71.80
18894;DHT22;9579;49.488;8.226;2023-04-30T15:42:00;23.30;70.10
18894;DHT22;9579;49.488;8.226;2023-04-30T15:44:47;23.30;71.80
18894;DHT22;9579;49.488;8.226;2023-04-30T15:47:35;23.00;69.90
18894;DHT22;9579;49.488;8.226;2023-04-30T15:50:24;23.00;71.20
18894;DHT22;9579;49.488;8.226;2023-04-30T15:53:11;22.80;70.70
18894;DHT22;9579;49.488;8.226;2023-04-30T15:55:58;22.50;69.90
18894;DHT22;9579;49.488;8.226;2023-04-30T15:58:45;22.30;69.00
18894;DHT22;9579;49.488;8.226;2023-04-30T16:01:32;22.20;70.20
18894;DHT22;9579;49.488;8.226;2023-04-30T16:04:19;21.90;70.50
18894;DHT22;9579;49.488;8.226;2023-04-30T16:07:08;21.80;70.10
18894;DHT22;9579;49.488;8.226;2023-04-30T16:09:55;21.90;70.60
18894;DHT22;9579;49.488;8.226;2023-04-30T16:12:42;22.00;72.00
18894;DHT22;9579;49.488;8.226;2023-04-30T16:15:29;22.00;73.00
18894;DHT22;9579;49.488;8.226;2023-04-30T16:18:17;22.10;73.10
18894;DHT22;9579;49.488;8.226;2023-04-30T16:21:04;22.20;73.80
18894;DHT22;9579;49.488;8.226;2023-04-30T16:23:55;22.20;71.40
18894;DHT22;9579;49.488;8.226;2023-04-30T16:26:42;22.00;70.30
18894;DHT22;9579;49.488;8.226;2023-04-30T16:29:29;21.90;71.70
18894;DHT22;9579;49.488;8.226;2023-04-30T16:32:16;21.60;71.00
18894;DHT22;9579;49.488;8.226;2023-04-30T16:35:04;21.50;70.80
18894;DHT22;9579;49.488;8.226;2023-04-30T16:37:52;21.50;69.80
18894;DHT22;9579;49.488;8.226;2023-04-30T16:40:40;21.60;71.00
18894;DHT22;9579;49.488;8.226;2023-04-30T16:43:27;21.60;68.00
18894;DHT22;9579;49.488;8.226;2023-04-30T16:46:14;21.50;70.50
18894;DHT22;9579;49.488;8.226;2023-04-30T16:49:01;21.50;70.10
18894;DHT22;9579;49.488;8.226;2023-04-30T16:51:50;21.50;71.00
18894;DHT22;9579;49.488;8.226;2023-04-30T16:54:37;21.40;70.30
18894;DHT22;9579;49.488;8.226;2023-04-30T16:57:25;21.40;71.10
18894;DHT22;9579;49.488;8.226;2023-04-30T17:00:13;21.30;72.20
18894;DHT22;9579;49.488;8.226;2023-04-30T17:03:01;21.30;74.00
18894;DHT22;9579;49.488;8.226;2023-04-30T17:05:51;21.20;75.00
18894;DHT22;9579;49.488;8.226;2023-04-30T17:08:38;21.20;74.20
18894;DHT22;9579;49.488;8.226;2023-04-30T17:11:25;21.10;73.60
18894;DHT22;9579;49.488;8.226;2023-04-30T17:14:14;20.90;74.30
18894;DHT22;9579;49.488;8.226;2023-04-30T17:17:01;20.80;73.90
18894;DHT22;9579;49.488;8.226;2023-04-30T17:19:48;20.90;76.80
18894;DHT22;9579;49.488;8.226;2023-04-30T17:22:35;20.90;76.50
18894;DHT22;9579;49.488;8.226;2023-04-30T17:25:23;20.80;77.40
18894;DHT22;9579;49.488;8.226;2023-04-30T17:28:10;20.70;76.10
18894;DHT22;9579;49.488;8.226;2023-04-30T17:30:58;20.60;74.30
18894;DHT22;9579;49.488;8.226;2023-04-30T17:33:47;20.60;75.90
18894;DHT22;9579;49.488;8.226;2023-04-30T17:36:34;20.40;76.70
18894;DHT22;9579;49.488;8.226;2023-04-30T17:39:22;20.40;78.00
18894;DHT22;9579;49.488;8.226;2023-04-30T17:42:09;20.40;78.40
18894;DHT22;9579;49.488;8.226;2023-04-30T17:44:57;20.40;78.30
18894;DHT22;9579;49.488;8.226;2023-04-30T17:47:46;20.30;78.20
18894;DHT22;9579;49.488;8.226;2023-04-30T17:50:34;20.30;81.10
18894;DHT22;9579;49.488;8.226;2023-04-30T17:53:21;20.30;82.90
18894;DHT22;9579;49.488;8.226;2023-04-30T17:56:08;20.30;83.50
18894;DHT22;9579;49.488;8.226;2023-04-30T17:58:55;20.20;81.50
18894;DHT22;9579;49.488;8.226;2023-04-30T18:01:42;20.20;80.30
18894;DHT22;9579;49.488;8.226;2023-04-30T18:04:30;20.10;81.30
18894;DHT22;9579;49.488;8.226;2023-04-30T18:07:18;20.10;83.30
18894;DHT22;9579;49.488;8.226;2023-04-30T18:10:06;20.00;82.40
18894;DHT22;9579;49.488;8.226;2023-04-30T18:12:56;19.80;82.60
18894;DHT22;9579;49.488;8.226;2023-04-30T18:15:43;19.80;84.40
18894;DHT22;9579;49.488;8.226;2023-04-30T18:18:30;19.70;84.10
18894;DHT22;9579;49.488;8.226;2023-04-30T18:21:18;19.60;83.60
18894;DHT22;9579;49.488;8.226;2023-04-30T18:24:05;19.50;84.10
18894;DHT22;9579;49.488;8.226;2023-04-30T18:26:52;19.40;85.90
18894;DHT22;9579;49.488;8.226;2023-04-30T18:29:40;19.40;87.20
18894;DHT22;9579;49.488;8.226;2023-04-30T18:32:28;19.30;87.40
18894;DHT22;9579;49.488;8.226;2023-04-30T18:35:16;19.20;87.80
18894;DHT22;9579;49.488;8.226;2023-04-30T18:38:04;19.10;87.70
18894;DHT22;9579;49.488;8.226;2023-04-30T18:40:53;19.10;88.90
18894;DHT22;9579;49.488;8.226;2023-04-30T18:43:40;18.90;88.70
18894;DHT22;9579;49.488;8.226;2023-04-30T18:46:28;18.80;89.20
18894;DHT22;9579;49.488;8.226;2023-04-30T18:49:15;18.80;89.50
18894;DHT22;9579;49.488;8.226;2023-04-30T18:52:02;18.50;90.00
18894;DHT22;9579;49.488;8.226;2023-04-30T18:54:50;18.40;90.30
18894;DHT22;9579;49.488;8.226;2023-04-30T18:57:38;18.30;91.40
18894;DHT22;9579;49.488;8.226;2023-04-30T19:00:25;18.20;91.10
18894;DHT22;9579;49.488;8.226;2023-04-30T19:03:12;18.20;91.20
18894;DHT22;9579;49.488;8.226;2023-04-30T19:05:59;18.10;90.90
18894;DHT22;9579;49.488;8.226;2023-04-30T19:08:47;18.20;91.30
18894;DHT22;9579;49.488;8.226;2023-04-30T19:11:35;18.10;91.40
18894;DHT22;9579;49.488;8.226;2023-04-30T19:14:22;18.10;92.20
18894;DHT22;9579;49.488;8.226;2023-04-30T19:17:09;17.90;92.40
18894;DHT22;9579;49.488;8.226;2023-04-30T19:19:57;17.80;92.40
18894;DHT22;9579;49.488;8.226;2023-04-30T19:22:44;17.70;92.80
18894;DHT22;9579;49.488;8.226;2023-04-30T19:25:32;17.60;93.00
18894;DHT22;9579;49.488;8.226;2023-04-30T19:28:20;17.60;93.50
18894;DHT22;9579;49.488;8.226;2023-04-30T19:31:07;17.60;93.90
18894;DHT22;9579;49.488;8.226;2023-04-30T19:33:58;17.50;93.70
18894;DHT22;9579;49.488;8.226;2023-04-30T19:36:45;17.40;93.60
18894;DHT22;9579;49.488;8.226;2023-04-30T19:39:32;17.20;93.60
18894;DHT22;9579;49.488;8.226;2023-04-30T19:42:21;17.00;93.90
18894;DHT22;9579;49.488;8.226;2023-04-30T19:45:10;17.00;94.40
18894;DHT22;9579;49.488;8.226;2023-04-30T19:47:57;16.90;94.40
18894;DHT22;9579;49.488;8.226;2023-04-30T19:50:44;16.80;94.20
18894;DHT22;9579;49.488;8.226;2023-04-30T19:53:31;16.60;94.50
18894;DHT22;9579;49.488;8.226;2023-04-30T19:56:19;16.60;94.90
18894;DHT22;9579;49.488;8.226;2023-04-30T19:59:06;16.60;95.40
18894;DHT22;9579;49.488;8.226;2023-04-30T20:01:54;16.50;95.70
18894;DHT22;9579;49.488;8.226;2023-04-30T20:04:42;16.40;95.00
18894;DHT22;9579;49.488;8.226;2023-04-30T20:07:29;16.40;95.50
18894;DHT22;9579;49.488;8.226;2023-04-30T20:10:16;16.50;95.10
18894;DHT22;9579;49.488;8.226;2023-04-30T20:13:04;16.50;95.60
18894;DHT22;9579;49.488;8.226;2023-04-30T20:15:52;16.30;95.10
18894;DHT22;9579;49.488;8.226;2023-04-30T20:18:40;16.20;95.10
18894;DHT22;9579;49.488;8.226;2023-04-30T20:21:27;16.30;95.70
18894;DHT22;9579;49.488;8.226;2023-04-30T20:24:15;16.20;95.90
18894;DHT22;9579;49.488;8.226;2023-04-30T20:27:02;16.20;95.60
18894;DHT22;9579;49.488;8.226;2023-04-30T20:29:51;16.20;95.80
18894;DHT22;9579;49.488;8.226;2023-04-30T20:32:39;16.10;95.10
18894;DHT22;9579;49.488;8.226;2023-04-30T20:35:28;16.40;95.00
18894;DHT22;9579;49.488;8.226;2023-04-30T20:38:15;16.20;94.90
18894;DHT22;9579;49.488;8.226;2023-04-30T20:41:03;16.10;95.40
18894;DHT22;9579;49.488;8.226;2023-04-30T20:43:50;16.00;96.00
18894;DHT22;9579;49.488;8.226;2023-04-30T20:46:37;16.00;95.90
18894;DHT22;9579;49.488;8.226;2023-04-30T20:49:24;16.00;95.60
18894;DHT22;9579;49.488;8.226;2023-04-30T20:52:13;15.70;96.00
18894;DHT22;9579;49.488;8.226;2023-04-30T20:55:00;16.00;96.60
18894;DHT22;9579;49.488;8.226;2023-04-30T20:57:48;16.00;96.40
18894;DHT22;9579;49.488;8.226;2023-04-30T21:00:35;16.00;95.80
18894;DHT22;9579;49.488;8.226;2023-04-30T21:03:22;16.00;95.80
18894;DHT22;9579;49.488;8.226;2023-04-30T21:06:09;16.00;95.70
18894;DHT22;9579;49.488;8.226;2023-04-30T21:08:58;16.20;96.20
18894;DHT22;9579;49.488;8.226;2023-04-30T21:11:45;16.30;95.80
18894;DHT22;9579;49.488;8.226;2023-04-30T21:14:32;16.10;95.80
18894;DHT22;9579;49.488;8.226;2023-04-30T21:17:20;16.10;95.40
18894;DHT22;9579;49.488;8.226;2023-04-30T21:20:08;16.00;95.80
18894;DHT22;9579;49.488;8.226;2023-04-30T21:22:55;16.00;96.20
18894;DHT22;9579;49.488;8.226;2023-04-30T21:25:44;15.70;96.80
18894;DHT22;9579;49.488;8.226;2023-04-30T21:28:31;15.80;96.80
18894;DHT22;9579;49.488;8.226;2023-04-30T21:31:17;15.70;96.80
18894;DHT22;9579;49.488;8.226;2023-04-30T21:34:04;15.70;97.10
18894;DHT22;9579;49.488;8.226;2023-04-30T21:36:54;15.50;97.20
18894;DHT22;9579;49.488;8.226;2023-04-30T21:39:41;15.50;97.70
18894;DHT22;9579;49.488;8.226;2023-04-30T21:42:28;15.40;98.10
18894;DHT22;9579;49.488;8.226;2023-04-30T21:45:14;15.50;98.40
18894;DHT22;9579;49.488;8.226;2023-04-30T21:48:29;15.60;98.00
18894;DHT22;9579;49.488;8.226;2023-04-30T21:57:35;15.40;98.00
18894;DHT22;9579;49.488;8.226;2023-04-30T22:00:22;15.50;98.10
18894;DHT22;9579;49.488;8.226;2023-04-30T22:35:50;14.90;99.40
18894;DHT22;9579;49.488;8.226;2023-04-30T22:38:39;14.80;99.70
18894;DHT22;9579;49.488;8.226;2023-04-30T22:41:26;14.80;99.60
18894;DHT22;9579;49.488;8.226;2023-04-30T22:44:13;14.80;99.40
18894;DHT22;9579;49.488;8.226;2023-04-30T22:47:01;14.80;99.00
18894;DHT22;9579;49.488;8.226;2023-04-30T22:49:48;15.00;98.60
18894;DHT22;9579;49.488;8.226;2023-04-30T22:52:37;14.90;97.90
18894;DHT22;9579;49.488;8.226;2023-04-30T22:55:24;14.90;97.90
18894;DHT22;9579;49.488;8.226;2023-04-30T22:58:11;14.90;97.50
18894;DHT22;9579;49.488;8.226;2023-04-30T23:00:58;14.90;97.50
18894;DHT22;9579;49.488;8.226;2023-04-30T23:03:46;14.90;97.40
18894;DHT22;9579;49.488;8.226;2023-04-30T23:06:33;14.90;97.60
18894;DHT22;9579;49.488;8.226;2023-04-30T23:09:21;14.90;97.90
18894;DHT22;9579;49.488;8.226;2023-04-30T23:12:08;14.80;98.00
18894;DHT22;9579;49.488;8.226;2023-04-30T23:14:55;14.70;98.50
18894;DHT22;9579;49.488;8.226;2023-04-30T23:17:42;14.60;98.50
18894;DHT22;9579;49.488;8.226;2023-04-30T23:20:29;14.60;98.70
18894;DHT22;9579;49.488;8.226;2023-04-30T23:23:16;14.70;98.70
18894;DHT22;9579;49.488;8.226;2023-04-30T23:26:04;14.70;98.80
18894;DHT22;9579;49.488;8.226;2023-04-30T23:28:51;14.70;98.50
18894;DHT22;9579;49.488;8.226;2023-04-30T23:31:39;14.70;98.30
18894;DHT22;9579;49.488;8.226;2023-04-30T23:34:26;14.90;98.40
18894;DHT22;9579;49.488;8.226;2023-04-30T23:37:13;14.80;98.30
18894;DHT22;9579;49.488;8.226;2023-04-30T23:40:01;14.80;98.20
18894;DHT22;9579;49.488;8.226;2023-04-30T23:42:53;14.80;98.50
18894;DHT22;9579;49.488;8.226;2023-04-30T23:45:40;14.70;98.30
18894;DHT22;9579;49.488;8.226;2023-04-30T23:48:27;14.60;98.50
18894;DHT22;9579;49.488;8.226;2023-04-30T23:51:15;14.70;98.60
18894;DHT22;9579;49.488;8.226;2023-04-30T23:54:03;14.70;98.60
18894;DHT22;9579;49.488;8.226;2023-04-30T23:56:50;14.70;98.50
18894;DHT22;9579;49.488;8.226;2023-04-30T23:59:38;14.70;98.50
